createdAt,value
2023-05-01T00:04:26.899Z,78.10
2023-05-01T00:14:34.731Z,78.23
2023-05-01T00:24:41.333Z,78.35
2023-05-01T00:34:48.254Z,78.58
2023-05-01T00:44:54.965Z,79.41
2023-05-01T00:55:01.631Z,79.59
2023-05-01T01:05:08.360Z,79.60
2023-05-01T01:15:15.372Z,79.94
2023-05-01T01:25:23.538Z,79.95
2023-05-01T01:35:29.893Z,80.08
2023-05-01T01:45:36.998Z,79.93
2023-05-01T01:55:43.126Z,80.16
2023-05-01T02:05:49.462Z,79.54
2023-05-01T02:15:54.924Z,79.20
2023-05-01T02:26:01.189Z,78.72
2023-05-01T02:36:07.377Z,78.36
2023-05-01T02:46:13.668Z,78.13
2023-05-01T02:56:19.455Z,77.88
2023-05-01T03:06:25.297Z,78.18
2023-05-01T03:16:31.393Z,78.10
2023-05-01T03:26:37.608Z,78.17
2023-05-01T03:36:43.733Z,78.02
2023-05-01T03:46:49.858Z,77.65
2023-05-01T03:56:56.364Z,77.21
2023-05-01T04:07:02.521Z,77.12
2023-05-01T04:17:08.643Z,77.03
2023-05-01T04:27:14.530Z,77.25
2023-05-01T04:37:21.042Z,77.31
2023-05-01T04:47:27.240Z,77.52
2023-05-01T04:57:32.855Z,77.31
2023-05-01T05:07:38.930Z,77.04
2023-05-01T05:17:45.353Z,76.85
2023-05-01T05:27:51.883Z,76.52
2023-05-01T05:37:58.245Z,75.96
2023-05-01T05:48:04.498Z,75.41
2023-05-01T05:58:10.795Z,74.31
2023-05-01T06:08:16.827Z,73.84
2023-05-01T06:18:22.827Z,72.98
2023-05-01T06:28:28.883Z,72.92
2023-05-01T06:38:30.320Z,73.50
2023-05-01T06:48:37.619Z,68.00
2023-05-01T06:58:43.867Z,66.48
2023-05-01T07:08:49.421Z,66.24
2023-05-01T07:18:56.818Z,62.15
2023-05-01T07:29:05.730Z,60.04
2023-05-01T07:39:12.142Z,61.85
2023-05-01T07:49:18.672Z,63.02
2023-05-01T07:59:25.780Z,63.47
2023-05-01T08:09:32.678Z,63.91
2023-05-01T08:19:39.322Z,64.38
2023-05-01T08:29:46.172Z,64.64
2023-05-01T08:39:53.597Z,64.64
2023-05-01T08:50:00.334Z,64.74
2023-05-01T09:00:06.961Z,64.93
2023-05-01T09:10:13.387Z,65.00
2023-05-01T09:20:19.954Z,65.07
2023-05-01T09:30:26.334Z,65.19
2023-05-01T09:40:33.171Z,65.54
2023-05-01T09:50:39.238Z,65.80
2023-05-01T10:00:45.908Z,66.13
2023-05-01T10:10:52.792Z,66.44
2023-05-01T10:20:59.604Z,66.65
2023-05-01T10:31:05.821Z,66.63
2023-05-01T10:41:12.151Z,66.81
2023-05-01T10:51:18.772Z,66.99
2023-05-01T11:01:25.496Z,67.21
2023-05-01T11:11:31.938Z,67.42
2023-05-01T11:21:38.340Z,67.67
2023-05-01T11:31:44.986Z,67.72
2023-05-01T11:41:51.446Z,67.91
2023-05-01T11:51:58.452Z,68.07
2023-05-01T12:02:04.894Z,68.18
2023-05-01T12:12:11.860Z,68.38
2023-05-01T12:22:18.587Z,68.38
2023-05-01T12:32:25.119Z,68.49
2023-05-01T12:42:31.946Z,68.59
2023-05-01T12:52:38.561Z,68.66
2023-05-01T13:02:45.495Z,68.68
2023-05-01T13:12:52.052Z,68.74
2023-05-01T13:22:58.855Z,68.75
2023-05-01T13:33:05.629Z,68.80
2023-05-01T13:43:12.417Z,68.87
2023-05-01T13:53:19.098Z,68.92
2023-05-01T14:03:26.371Z,69.09
2023-05-01T14:13:32.715Z,69.13
2023-05-01T14:23:39.214Z,69.14
2023-05-01T14:33:45.881Z,69.16
2023-05-01T14:43:52.494Z,69.22
2023-05-01T14:53:58.979Z,69.26
2023-05-01T15:04:05.243Z,69.33
2023-05-01T15:14:11.585Z,69.39
2023-05-01T15:24:18.010Z,69.58
2023-05-01T15:34:24.534Z,69.55
2023-05-01T15:44:31.099Z,69.60
2023-05-01T15:54:37.308Z,69.62
2023-05-01T16:04:43.061Z,69.70
2023-05-01T16:14:49.239Z,69.79
2023-05-01T16:24:55.708Z,69.88
2023-05-01T16:35:02.348Z,69.94
2023-05-01T16:45:08.990Z,69.93
2023-05-01T16:55:15.948Z,70.03
2023-05-01T17:05:22.547Z,70.12
2023-05-01T17:15:29.132Z,70.04
2023-05-01T17:25:35.779Z,69.97
2023-05-01T17:35:42.097Z,69.95
2023-05-01T17:45:48.336Z,69.81
2023-05-01T17:55:54.950Z,69.79
2023-05-01T18:06:01.226Z,69.80
2023-05-01T18:16:08.349Z,69.56
2023-05-01T18:26:15.604Z,70.42
2023-05-01T18:36:22.865Z,71.79
2023-05-01T18:46:30.241Z,71.75
2023-05-01T18:56:37.798Z,71.44
2023-05-01T19:06:44.952Z,71.70
2023-05-01T19:16:51.928Z,71.69
2023-05-01T19:27:00.295Z,71.84
2023-05-01T19:37:07.877Z,71.69
2023-05-01T19:47:15.174Z,71.55
2023-05-01T19:57:22.303Z,71.77
2023-05-01T20:07:29.088Z,72.10
2023-05-01T20:17:37.762Z,72.32
2023-05-01T20:27:44.919Z,72.58
2023-05-01T20:37:52.019Z,73.06
2023-05-01T20:47:59.016Z,73.01
2023-05-01T20:58:06.391Z,73.26
2023-05-01T21:08:13.513Z,73.67
2023-05-01T21:18:20.897Z,73.89
2023-05-01T21:28:27.984Z,74.08
2023-05-01T21:38:35.582Z,74.26
2023-05-01T21:48:42.848Z,74.59
2023-05-01T22:00:09.077Z,75.12
2023-05-01T22:10:17.864Z,75.79
2023-05-01T22:20:25.545Z,76.06
2023-05-01T22:30:32.982Z,77.13
2023-05-01T22:40:40.641Z,77.55
2023-05-01T22:50:47.888Z,77.50
2023-05-01T23:00:54.902Z,77.25
2023-05-01T23:11:02.169Z,77.28
2023-05-01T23:21:09.675Z,77.63
2023-05-01T23:31:16.992Z,76.73
2023-05-01T23:41:23.082Z,75.93
2023-05-01T23:51:29.084Z,75.36
